createdAt,value
2023-02-18T00:02:58.363Z,10.05
2023-02-18T00:08:01.778Z,10.10
2023-02-18T00:13:05.040Z,10.12
2023-02-18T00:18:09.761Z,10.14
2023-02-18T00:23:12.972Z,10.17
2023-02-18T00:28:16.196Z,10.15
2023-02-18T00:33:20.791Z,10.10
2023-02-18T00:38:23.962Z,10.22
2023-02-18T00:43:29.103Z,10.18
2023-02-18T00:48:33.987Z,10.16
2023-02-18T00:53:37.747Z,10.19
2023-02-18T00:58:41.081Z,10.11
2023-02-18T01:03:46.007Z,10.22
2023-02-18T01:08:50.929Z,10.14
2023-02-18T01:13:54.321Z,10.04
2023-02-18T01:18:59.447Z,10.04
2023-02-18T01:24:02.924Z,10.06
2023-02-18T01:29:06.072Z,10.10
2023-02-18T01:34:10.900Z,10.07
2023-02-18T01:39:14.157Z,10.08
2023-02-18T01:44:19.456Z,10.10
2023-02-18T01:49:28.216Z,9.97
2023-02-18T01:54:33.801Z,9.93
2023-02-18T01:59:40.920Z,9.82
2023-02-18T02:04:45.954Z,10.04
2023-02-18T02:09:51.740Z,9.89
2023-02-18T02:15:15.880Z,10.05
2023-02-18T02:20:52.282Z,10.03
2023-02-18T02:26:28.173Z,10.04
2023-02-18T02:32:22.424Z,9.98
2023-02-18T02:37:36.462Z,10.02
2023-02-18T02:42:48.068Z,9.73
2023-02-18T02:48:01.907Z,9.84
2023-02-18T02:53:13.447Z,9.93
2023-02-18T02:58:19.280Z,9.92
2023-02-18T03:03:43.200Z,9.95
2023-02-18T03:09:00.312Z,10.03
2023-02-18T03:14:11.378Z,9.99
2023-02-18T03:19:25.039Z,10.00
2023-02-18T03:24:38.762Z,9.94
2023-02-18T03:29:44.498Z,9.90
2023-02-18T03:34:52.834Z,9.97
2023-02-18T03:40:01.682Z,9.92
2023-02-18T03:45:05.779Z,10.04
2023-02-18T03:50:10.901Z,10.02
2023-02-18T03:55:15.680Z,10.02
2023-02-18T04:00:20.298Z,9.92
2023-02-18T04:05:23.411Z,9.97
2023-02-18T04:10:28.089Z,10.06
2023-02-18T04:15:31.355Z,10.09
2023-02-18T04:20:34.470Z,10.18
2023-02-18T04:25:39.187Z,10.03
2023-02-18T04:30:42.708Z,10.00
2023-02-18T04:35:45.936Z,9.89
2023-02-18T04:40:50.539Z,9.97
2023-02-18T04:45:53.818Z,9.87
2023-02-18T04:50:56.964Z,9.84
2023-02-18T04:56:01.818Z,9.59
2023-02-18T05:01:06.257Z,9.76
2023-02-18T05:06:09.775Z,9.94
2023-02-18T05:11:14.440Z,9.86
2023-02-18T05:16:17.885Z,9.69
2023-02-18T05:21:21.142Z,9.79
2023-02-18T05:26:25.857Z,9.89
2023-02-18T05:31:29.156Z,9.76
2023-02-18T05:36:32.615Z,9.89
2023-02-18T05:41:37.241Z,9.87
2023-02-18T05:46:40.463Z,9.89
2023-02-18T05:51:43.752Z,9.81
2023-02-18T05:56:48.410Z,9.76
2023-02-18T06:01:52.210Z,9.66
2023-02-18T06:06:55.896Z,9.78
2023-02-18T06:12:00.686Z,9.63
2023-02-18T06:17:03.864Z,9.72
2023-02-18T06:22:07.270Z,9.47
2023-02-18T06:27:11.953Z,9.64
2023-02-18T06:32:15.609Z,9.62
2023-02-18T06:37:19.115Z,9.66
2023-02-18T06:42:24.530Z,9.63
2023-02-18T06:47:29.248Z,9.82
2023-02-18T06:52:34.829Z,9.76
2023-02-18T06:57:40.607Z,9.79
2023-02-18T07:02:44.436Z,9.67
2023-02-18T07:07:47.800Z,9.68
2023-02-18T07:12:53.634Z,9.78
2023-02-18T07:17:57.394Z,9.78
2023-02-18T07:23:01.265Z,9.80
2023-02-18T07:28:06.782Z,9.88
2023-02-18T07:33:10.158Z,10.02
2023-02-18T07:38:13.792Z,9.93
2023-02-18T07:43:18.737Z,10.05
2023-02-18T07:48:22.350Z,10.26
2023-02-18T07:53:25.930Z,10.29
2023-02-18T07:58:32.334Z,10.40
2023-02-18T08:03:36.101Z,10.57
2023-02-18T08:08:39.370Z,10.47
2023-02-18T08:13:46.995Z,10.64
2023-02-18T08:18:52.443Z,10.66
2023-02-18T08:23:56.870Z,10.87
2023-02-18T08:29:01.705Z,10.59
2023-02-18T08:34:05.153Z,10.68
2023-02-18T08:39:09.470Z,10.79
2023-02-18T08:44:15.646Z,10.93
2023-02-18T08:49:21.167Z,10.56
2023-02-18T08:54:25.272Z,10.80
2023-02-18T08:59:30.741Z,10.98
2023-02-18T09:04:34.585Z,11.16
2023-02-18T09:09:38.095Z,10.95
2023-02-18T09:14:43.358Z,11.03
2023-02-18T09:19:47.061Z,11.14
2023-02-18T09:24:52.652Z,10.83
2023-02-18T09:29:57.849Z,10.76
2023-02-18T09:35:02.036Z,10.70
2023-02-18T09:40:05.975Z,10.72
2023-02-18T09:45:16.621Z,10.56
2023-02-18T09:50:23.217Z,10.94
2023-02-18T09:55:31.021Z,10.53
2023-02-18T10:00:38.603Z,10.63
2023-02-18T10:05:44.888Z,10.48
2023-02-18T10:10:48.751Z,10.49
2023-02-18T10:15:54.152Z,10.26
2023-02-18T10:21:09.741Z,10.23
2023-02-18T10:26:19.289Z,10.05
2023-02-18T10:31:31.095Z,10.24
2023-02-18T10:36:41.310Z,10.25
2023-02-18T10:41:53.431Z,10.21
2023-02-18T10:47:05.367Z,10.19
2023-02-18T10:52:17.561Z,10.22
2023-02-18T10:57:23.181Z,10.19
2023-02-18T11:02:32.648Z,10.41
2023-02-18T11:07:40.461Z,10.32
2023-02-18T11:12:48.583Z,10.38
2023-02-18T11:17:55.485Z,10.11
2023-02-18T11:23:15.117Z,10.22
2023-02-18T11:28:31.781Z,10.52
2023-02-18T11:33:41.815Z,10.58
2023-02-18T11:38:48.958Z,10.41
2023-02-18T11:43:55.985Z,10.91
2023-02-18T11:49:22.018Z,10.88
2023-02-18T11:54:30.358Z,11.49
2023-02-18T11:59:37.867Z,11.98
2023-02-18T12:04:48.367Z,11.53
2023-02-18T12:09:56.324Z,11.84
2023-02-18T12:15:01.846Z,11.53
2023-02-18T12:20:24.425Z,11.03
2023-02-18T12:25:40.543Z,11.44
2023-02-18T12:31:19.761Z,11.48
2023-02-18T12:36:37.905Z,11.60
2023-02-18T12:42:00.258Z,12.14
2023-02-18T12:47:19.262Z,11.30
2023-02-18T12:52:40.400Z,11.28
2023-02-18T12:57:48.598Z,11.90
2023-02-18T13:03:21.011Z,11.54
2023-02-18T13:08:43.336Z,11.51
2023-02-18T13:13:54.244Z,11.30
2023-02-18T13:19:03.620Z,11.55
2023-02-18T13:24:13.652Z,11.02
2023-02-18T13:29:26.964Z,10.83
2023-02-18T13:34:41.315Z,10.97
2023-02-18T13:39:52.654Z,10.55
2023-02-18T13:45:07.816Z,10.68
2023-02-18T13:50:50.388Z,10.90
2023-02-18T13:56:09.327Z,10.50
2023-02-18T14:01:33.327Z,10.77
2023-02-18T14:06:39.061Z,10.45
2023-02-18T14:11:50.244Z,10.38
2023-02-18T14:17:31.820Z,10.58
2023-02-18T14:22:46.568Z,10.39
2023-02-18T14:27:54.642Z,10.74
2023-02-18T14:33:01.198Z,10.40
2023-02-18T14:38:24.587Z,10.51
2023-02-18T14:43:57.424Z,10.20
2023-02-18T14:49:17.917Z,10.15
2023-02-18T14:54:25.158Z,9.81
2023-02-18T14:59:35.782Z,10.05
2023-02-18T15:04:39.496Z,10.10
2023-02-18T15:09:50.442Z,10.08
2023-02-18T15:15:01.804Z,9.67
2023-02-18T15:20:09.145Z,9.53
2023-02-18T15:25:14.609Z,9.65
2023-02-18T15:30:29.220Z,9.53
2023-02-18T15:35:34.252Z,9.36
2023-02-18T15:40:40.742Z,9.53
2023-02-18T15:45:47.901Z,9.54
2023-02-18T15:50:55.574Z,9.21
2023-02-18T15:56:00.973Z,9.40
2023-02-18T16:01:08.148Z,9.43
2023-02-18T16:06:19.008Z,9.33
2023-02-18T16:11:25.978Z,9.37
2023-02-18T16:16:35.321Z,9.22
2023-02-18T16:21:41.604Z,9.25
2023-02-18T16:26:48.094Z,9.00
2023-02-18T16:31:53.356Z,9.30
2023-02-18T16:37:14.324Z,9.09
2023-02-18T16:42:18.115Z,9.17
2023-02-18T16:47:22.705Z,9.29
2023-02-18T16:52:25.819Z,9.22
2023-02-18T16:57:28.951Z,9.22
2023-02-18T17:02:33.510Z,9.33
2023-02-18T17:07:37.042Z,9.25
2023-02-18T17:12:42.719Z,9.08
2023-02-18T17:17:47.346Z,9.20
2023-02-18T17:22:50.635Z,9.15
2023-02-18T17:27:53.809Z,9.25
2023-02-18T17:33:03.169Z,9.26
2023-02-18T17:38:11.378Z,9.39
2023-02-18T17:43:16.095Z,9.23
2023-02-18T17:48:21.245Z,9.37
2023-02-18T17:53:25.084Z,9.31
2023-02-18T17:58:31.068Z,9.38
2023-02-18T18:03:35.576Z,9.33
2023-02-18T18:08:38.718Z,9.35
2023-02-18T18:13:42.214Z,9.37
2023-02-18T18:18:47.013Z,9.39
2023-02-18T18:23:51.210Z,9.21
2023-02-18T18:28:54.990Z,9.30
2023-02-18T18:33:59.867Z,9.18
2023-02-18T18:39:05.425Z,9.31
2023-02-18T18:44:09.141Z,9.15
2023-02-18T18:49:13.833Z,9.01
2023-02-18T18:54:17.839Z,9.18
2023-02-18T18:59:22.357Z,9.05
2023-02-18T19:04:28.086Z,9.19
2023-02-18T19:09:31.451Z,8.90
2023-02-18T19:14:34.696Z,9.10
2023-02-18T19:19:39.527Z,8.94
2023-02-18T19:24:43.012Z,9.03
2023-02-18T19:29:48.573Z,9.14
2023-02-18T19:34:53.281Z,9.17
2023-02-18T19:39:56.530Z,9.15
2023-02-18T19:45:00.028Z,9.12
2023-02-18T19:50:07.725Z,9.14
2023-02-18T19:55:11.925Z,9.10
2023-02-18T20:00:17.112Z,9.18
2023-02-18T20:05:21.881Z,9.10
2023-02-18T20:10:25.411Z,9.01
2023-02-18T20:15:29.221Z,9.14
2023-02-18T20:20:36.220Z,9.13
2023-02-18T20:25:40.267Z,8.97
2023-02-18T20:30:44.326Z,9.01
2023-02-18T20:35:57.337Z,8.94
2023-02-18T20:41:05.170Z,8.97
2023-02-18T20:46:11.821Z,8.97
2023-02-18T20:51:18.686Z,8.90
2023-02-18T20:56:22.830Z,9.02
2023-02-18T21:01:26.114Z,8.79
2023-02-18T21:06:30.897Z,8.77
2023-02-18T21:11:34.725Z,8.84
2023-02-18T21:16:40.136Z,8.87
2023-02-18T21:21:47.296Z,8.87
2023-02-18T21:26:50.754Z,8.79
2023-02-18T21:31:54.390Z,8.83
2023-02-18T21:36:59.432Z,8.88
2023-02-18T21:42:04.504Z,8.97
2023-02-18T21:47:07.862Z,8.87
2023-02-18T21:52:12.807Z,8.78
2023-02-18T21:57:18.495Z,8.81
2023-02-18T22:02:24.026Z,8.78
2023-02-18T22:07:29.347Z,8.68
2023-02-18T22:12:34.057Z,8.66
2023-02-18T22:17:37.472Z,8.57
2023-02-18T22:22:42.053Z,8.53
2023-02-18T22:27:45.085Z,8.59
2023-02-18T22:32:48.188Z,8.54
2023-02-18T22:37:52.730Z,8.54
2023-02-18T22:42:55.881Z,8.45
2023-02-18T22:47:59.176Z,8.37
2023-02-18T22:53:04.388Z,8.23
2023-02-18T22:58:07.677Z,8.53
2023-02-18T23:03:10.831Z,8.48
2023-02-18T23:08:15.414Z,8.50
2023-02-18T23:13:18.675Z,8.51
2023-02-18T23:18:22.175Z,8.53
2023-02-18T23:23:26.861Z,8.56
2023-02-18T23:28:47.613Z,8.75
2023-02-18T23:33:54.574Z,8.86
2023-02-18T23:39:01.044Z,8.69
2023-02-18T23:44:05.092Z,8.75
2023-02-18T23:49:09.464Z,8.55
2023-02-18T23:54:14.300Z,8.62
2023-02-18T23:59:17.812Z,8.72
